createdAt,value
2023-08-02T00:00:43.756Z,93530.47
2023-08-02T00:03:11.614Z,93533.69
2023-08-02T00:05:39.127Z,93537.94
2023-08-02T00:08:06.862Z,93543.06
2023-08-02T00:10:38.515Z,93534.06
2023-08-02T00:13:06.456Z,93543.53
2023-08-02T00:15:34.366Z,93537.94
2023-08-02T00:18:04.186Z,93545.41
2023-08-02T00:20:31.336Z,93548.44
2023-08-02T00:22:58.703Z,93543.56
2023-08-02T00:25:26.265Z,93537.31
2023-08-02T00:27:53.439Z,93540.22
2023-08-02T00:30:21.001Z,93541.88
2023-08-02T00:32:50.021Z,93544.47
2023-08-02T00:35:17.970Z,93542.06
2023-08-02T00:37:46.332Z,93550.06
2023-08-02T00:40:13.920Z,93542.50
2023-08-02T00:42:41.476Z,93540.22
2023-08-02T00:45:09.680Z,93548.28
2023-08-02T00:47:37.894Z,93538.69
2023-08-02T00:50:06.395Z,93541.91
2023-08-02T00:52:34.569Z,93538.84
2023-08-02T00:55:02.339Z,93540.06
2023-08-02T00:57:30.805Z,93545.06
2023-08-02T00:59:58.088Z,93541.00
2023-08-02T01:02:26.355Z,93532.78
2023-08-02T01:04:54.037Z,93535.53
2023-08-02T01:07:42.410Z,93534.44
2023-08-02T01:10:21.775Z,93530.63
2023-08-02T01:12:52.961Z,93532.78
2023-08-02T01:15:20.735Z,93535.78
2023-08-02T01:17:52.011Z,93524.41
2023-08-02T01:20:19.661Z,93527.59
2023-08-02T01:22:47.036Z,93540.06
2023-08-02T01:25:14.642Z,93530.34
2023-08-02T01:27:48.388Z,93534.03
2023-08-02T01:30:20.389Z,93533.53
2023-08-02T01:32:48.532Z,93528.19
2023-08-02T01:35:17.122Z,93518.19
2023-08-02T01:37:44.877Z,93522.97
2023-08-02T01:40:13.095Z,93518.41
2023-08-02T01:42:40.825Z,93513.91
2023-08-02T01:45:08.604Z,93514.81
2023-08-02T01:47:36.189Z,93517.81
2023-08-02T01:50:03.931Z,93520.22
2023-08-02T01:52:31.708Z,93515.66
2023-08-02T01:54:59.286Z,93514.16
2023-08-02T01:57:26.466Z,93514.13
2023-08-02T01:59:54.655Z,93508.25
2023-08-02T02:02:22.340Z,93511.13
2023-08-02T02:04:49.779Z,93508.72
2023-08-02T02:07:16.944Z,93515.59
2023-08-02T02:09:44.515Z,93515.72
2023-08-02T02:12:11.900Z,93513.84
2023-08-02T02:14:39.273Z,93526.31
2023-08-02T02:17:06.834Z,93524.66
2023-08-02T02:19:34.018Z,93519.53
2023-08-02T02:22:01.427Z,93520.28
2023-08-02T02:24:29.208Z,93518.13
2023-08-02T02:26:56.925Z,93526.91
2023-08-02T02:29:24.924Z,93525.75
2023-08-02T02:31:52.521Z,93529.41
2023-08-02T02:34:19.862Z,93532.94
2023-08-02T02:36:48.226Z,93521.59
2023-08-02T02:39:16.005Z,93525.81
2023-08-02T02:41:43.584Z,93536.47
2023-08-02T02:44:11.183Z,93540.88
2023-08-02T02:46:38.585Z,93552.41
2023-08-02T02:49:06.098Z,93549.84
2023-08-02T02:51:33.690Z,93549.75
2023-08-02T02:54:01.241Z,93557.47
2023-08-02T02:56:28.608Z,93562.78
2023-08-02T02:58:56.043Z,93573.03
2023-08-02T03:01:23.402Z,93575.16
2023-08-02T03:03:51.143Z,93572.84
2023-08-02T03:06:18.543Z,93577.75
2023-08-02T03:08:45.872Z,93581.44
2023-08-02T03:11:13.048Z,93575.59
2023-08-02T03:13:41.023Z,93563.13
2023-08-02T03:16:08.447Z,93565.28
2023-08-02T03:18:35.967Z,93568.59
2023-08-02T03:21:03.535Z,93565.03
2023-08-02T03:23:30.930Z,93557.75
2023-08-02T03:25:58.293Z,93555.88
2023-08-02T03:28:25.671Z,93565.50
2023-08-02T03:30:55.944Z,93565.91
2023-08-02T03:33:23.403Z,93578.66
2023-08-02T03:35:51.204Z,93570.94
2023-08-02T03:38:18.804Z,93576.72
2023-08-02T03:40:46.120Z,93571.75
2023-08-02T03:43:13.323Z,93581.50
2023-08-02T03:45:41.082Z,93577.47
2023-08-02T03:48:08.846Z,93582.00
2023-08-02T03:50:36.228Z,93583.03
2023-08-02T03:53:03.795Z,93575.78
2023-08-02T03:55:31.359Z,93580.75
2023-08-02T03:57:58.765Z,93573.72
2023-08-02T04:00:26.307Z,93575.97
2023-08-02T04:02:53.924Z,93570.56
2023-08-02T04:05:21.254Z,93567.69
2023-08-02T04:07:49.028Z,93571.19
2023-08-02T04:10:16.200Z,93575.69
2023-08-02T04:12:43.625Z,93570.75
2023-08-02T04:15:11.551Z,93584.41
2023-08-02T04:17:38.959Z,93580.91
2023-08-02T04:20:07.152Z,93579.56
2023-08-02T04:22:34.495Z,93578.44
2023-08-02T04:25:02.232Z,93576.66
2023-08-02T04:27:29.606Z,93576.63
2023-08-02T04:29:56.795Z,93576.28
2023-08-02T04:32:24.024Z,93572.41
2023-08-02T04:34:51.547Z,93578.50
2023-08-02T04:37:18.917Z,93578.69
2023-08-02T04:39:46.472Z,93570.03
2023-08-02T04:42:13.870Z,93571.72
2023-08-02T04:44:41.218Z,93573.19
2023-08-02T04:47:08.593Z,93561.34
2023-08-02T04:49:36.979Z,93573.00
2023-08-02T04:52:04.357Z,93571.66
2023-08-02T04:54:32.364Z,93577.19
2023-08-02T04:57:00.515Z,93579.66
2023-08-02T04:59:28.062Z,93575.97
2023-08-02T05:01:55.647Z,93585.03
2023-08-02T05:04:23.269Z,93586.44
2023-08-02T05:06:50.787Z,93584.72
2023-08-02T05:09:19.151Z,93592.09
2023-08-02T05:11:46.550Z,93585.97
2023-08-02T05:14:13.896Z,93577.81
2023-08-02T05:16:41.279Z,93579.81
2023-08-02T05:19:08.445Z,93587.47
2023-08-02T05:21:36.017Z,93602.31
2023-08-02T05:24:03.594Z,93599.31
2023-08-02T05:26:30.978Z,93604.97
2023-08-02T05:28:58.137Z,93611.91
2023-08-02T05:31:25.327Z,93615.88
2023-08-02T05:33:52.480Z,93613.28
2023-08-02T12:00:46.399Z,93567.22
2023-08-02T12:03:49.320Z,93552.19
2023-08-02T12:06:34.640Z,93537.22
2023-08-02T12:12:22.440Z,93548.88
2023-08-02T12:14:49.211Z,93539.06
2023-08-02T12:17:18.039Z,93540.47
2023-08-02T12:19:46.923Z,93538.53
2023-08-02T12:22:15.735Z,93546.97
2023-08-02T12:24:42.984Z,93546.22
2023-08-02T12:27:13.746Z,93542.44
2023-08-02T12:29:40.406Z,93530.72
2023-08-02T12:32:07.658Z,93531.47
2023-08-02T12:34:34.437Z,93527.34
2023-08-02T12:37:01.124Z,93536.94
2023-08-02T12:39:27.859Z,93537.88
2023-08-02T12:41:54.602Z,93528.72
2023-08-02T12:44:21.313Z,93518.31
2023-08-02T12:46:48.613Z,93509.25
2023-08-02T12:49:15.393Z,93510.28
2023-08-02T12:51:42.127Z,93513.44
2023-08-02T12:54:10.060Z,93508.66
2023-08-02T12:56:36.711Z,93501.69
2023-08-02T12:59:03.418Z,93507.63
2023-08-02T13:01:30.236Z,93511.38
2023-08-02T13:03:57.408Z,93508.72
2023-08-02T13:06:24.300Z,93515.66
2023-08-02T13:08:51.381Z,93516.03
2023-08-02T13:11:18.151Z,93511.66
2023-08-02T13:13:44.897Z,93504.69
2023-08-02T13:16:11.701Z,93505.00
2023-08-02T13:18:38.398Z,93499.94
2023-08-02T13:21:05.253Z,93503.53
2023-08-02T13:23:31.969Z,93502.28
2023-08-02T13:25:58.729Z,93494.44
2023-08-02T13:28:25.435Z,93498.53
2023-08-02T13:30:52.287Z,93488.13
2023-08-02T13:33:18.975Z,93490.88
2023-08-02T13:35:45.705Z,93492.44
2023-08-02T13:38:12.505Z,93497.47
2023-08-02T13:40:39.173Z,93490.44
2023-08-02T13:43:05.853Z,93489.66
2023-08-02T13:45:32.682Z,93485.41
2023-08-02T13:47:59.571Z,93482.38
2023-08-02T13:50:26.610Z,93491.72
2023-08-02T13:52:53.301Z,93486.66
2023-08-02T13:55:20.327Z,93488.69
2023-08-02T13:57:47.038Z,93499.50
2023-08-02T14:00:14.179Z,93492.91
2023-08-02T14:02:41.041Z,93496.47
2023-08-02T14:05:07.924Z,93495.47
2023-08-02T14:07:34.732Z,93495.97
2023-08-02T14:10:01.475Z,93497.13
2023-08-02T14:12:28.244Z,93485.34
2023-08-02T14:14:54.899Z,93483.66
2023-08-02T14:17:21.692Z,93476.09
2023-08-02T14:19:48.738Z,93482.66
2023-08-02T14:22:15.475Z,93487.94
2023-08-02T14:24:42.228Z,93477.59
2023-08-02T14:27:09.255Z,93478.63
2023-08-02T14:29:36.045Z,93479.88
2023-08-02T14:32:02.832Z,93475.59
2023-08-02T14:34:29.576Z,93485.91
2023-08-02T14:36:56.346Z,93478.63
2023-08-02T14:39:23.268Z,93482.59
2023-08-02T14:41:52.793Z,93482.38
2023-08-02T14:44:19.439Z,93491.47
2023-08-02T14:46:46.450Z,93487.69
2023-08-02T14:49:13.432Z,93483.41
2023-08-02T14:51:40.141Z,93482.91
2023-08-02T14:54:13.174Z,93482.63
2023-08-02T14:56:42.113Z,93479.63
2023-08-02T14:59:09.718Z,93479.78
2023-08-02T15:01:36.515Z,93478.34
2023-08-02T15:04:03.539Z,93478.38
2023-08-02T15:06:30.475Z,93482.16
2023-08-02T15:08:57.300Z,93482.41
2023-08-02T15:11:24.004Z,93473.03
2023-08-02T15:13:50.713Z,93479.59
2023-08-02T15:16:17.420Z,93481.13
2023-08-02T15:18:44.243Z,93484.66
2023-08-02T15:21:11.178Z,93478.34
2023-08-02T15:23:38.101Z,93479.78
2023-08-02T15:26:05.265Z,93481.34
2023-08-02T15:28:32.215Z,93467.44
2023-08-02T15:30:58.973Z,93472.41
2023-08-02T15:33:25.808Z,93473.44
2023-08-02T15:35:52.487Z,93480.50
2023-08-02T15:38:19.213Z,93485.06
2023-08-02T15:40:45.928Z,93477.09
2023-08-02T15:43:12.555Z,93478.56
2023-08-02T15:45:39.287Z,93484.56
2023-08-02T15:48:06.192Z,93479.13
2023-08-02T15:50:35.604Z,93478.59
2023-08-02T15:53:03.546Z,93475.00
2023-08-02T15:55:30.638Z,93488.94
2023-08-02T15:57:57.496Z,93485.66
2023-08-02T16:00:24.704Z,93485.16
2023-08-02T16:02:51.604Z,93489.63
2023-08-02T16:05:20.777Z,93493.19
2023-08-02T16:07:47.669Z,93487.91
2023-08-02T16:10:14.567Z,93494.56
2023-08-02T16:12:41.397Z,93496.50
2023-08-02T16:15:08.530Z,93500.28
2023-08-02T16:17:35.192Z,93500.88
2023-08-02T16:20:02.544Z,93505.63
2023-08-02T16:22:29.499Z,93503.44
2023-08-02T16:24:56.183Z,93508.63
2023-08-02T16:27:22.925Z,93514.69
2023-08-02T16:29:49.705Z,93512.25
2023-08-02T16:32:16.491Z,93504.25
2023-08-02T16:34:43.381Z,93512.25
2023-08-02T16:37:10.101Z,93511.56
2023-08-02T16:39:36.838Z,93523.84
2023-08-02T16:42:03.594Z,93519.84
2023-08-02T16:44:30.295Z,93526.31
2023-08-02T16:46:57.022Z,93522.28
2023-08-02T16:49:23.804Z,93526.91
2023-08-02T16:51:50.489Z,93520.47
2023-08-02T16:54:17.223Z,93532.34
2023-08-02T16:56:43.962Z,93536.56
2023-08-02T16:59:10.646Z,93532.22
2023-08-02T17:01:37.514Z,93543.59
2023-08-02T17:04:04.636Z,93546.88
2023-08-02T17:06:33.442Z,93543.81
2023-08-02T17:09:00.217Z,93549.44
2023-08-02T17:11:26.960Z,93549.41
2023-08-02T17:13:53.667Z,93549.22
2023-08-02T17:16:20.530Z,93542.44
2023-08-02T17:18:47.708Z,93552.31
2023-08-02T17:21:14.438Z,93562.53
2023-08-02T17:23:41.235Z,93559.03
2023-08-02T17:26:08.138Z,93565.06
2023-08-02T17:28:34.846Z,93561.53
2023-08-02T17:31:02.674Z,93562.94
2023-08-02T17:33:30.448Z,93561.41
2023-08-02T17:35:57.207Z,93563.16
2023-08-02T17:38:23.941Z,93565.28
2023-08-02T17:40:50.814Z,93558.47
2023-08-02T17:43:17.831Z,93566.22
2023-08-02T17:45:44.904Z,93562.63
2023-08-02T17:48:14.347Z,93565.88
2023-08-02T17:50:41.115Z,93573.63
2023-08-02T17:53:07.884Z,93568.75
2023-08-02T17:55:34.662Z,93569.56
2023-08-02T17:58:01.522Z,93575.25
2023-08-02T18:00:34.085Z,93573.28
2023-08-02T18:03:00.903Z,93581.19
2023-08-02T18:05:27.696Z,93588.94
2023-08-02T18:07:54.452Z,93586.75
2023-08-02T18:10:22.116Z,93585.38
2023-08-02T18:12:49.016Z,93592.41
2023-08-02T18:15:15.807Z,93599.28
2023-08-02T18:17:42.536Z,93602.06
2023-08-02T18:20:09.832Z,93601.09
2023-08-02T18:22:36.548Z,93603.16
2023-08-02T18:25:03.726Z,93603.56
2023-08-02T18:27:30.483Z,93609.06
2023-08-02T18:29:59.041Z,93607.38
2023-08-02T18:32:27.418Z,93613.81
2023-08-02T18:34:54.072Z,93608.19
2023-08-02T18:37:20.719Z,93610.47
2023-08-02T18:39:47.375Z,93612.66
2023-08-02T18:42:14.164Z,93615.88
2023-08-02T18:44:40.996Z,93613.00
2023-08-02T18:47:07.759Z,93609.97
2023-08-02T18:49:34.445Z,93616.75
2023-08-02T18:52:05.188Z,93611.38
2023-08-02T18:54:32.094Z,93614.91
2023-08-02T18:56:58.754Z,93622.19
2023-08-02T18:59:25.512Z,93623.09
2023-08-02T19:01:52.304Z,93622.34
2023-08-02T19:04:19.193Z,93622.13
2023-08-02T19:06:46.888Z,93625.34
2023-08-02T19:09:14.058Z,93638.75
2023-08-02T19:11:42.006Z,93627.97
2023-08-02T19:14:11.633Z,93628.53
2023-08-02T19:16:38.377Z,93637.34
2023-08-02T19:19:16.007Z,93639.84
2023-08-02T19:21:43.012Z,93641.53
2023-08-02T19:24:10.103Z,93641.38
2023-08-02T19:26:38.382Z,93647.19
2023-08-02T19:29:05.186Z,93646.13
2023-08-02T19:31:32.181Z,93637.34
2023-08-02T19:33:58.982Z,93645.78
2023-08-02T19:36:25.800Z,93638.44
2023-08-02T19:38:52.578Z,93633.69
2023-08-02T19:41:29.029Z,93642.72
2023-08-02T19:43:58.870Z,93652.97
2023-08-02T19:46:26.719Z,93641.47
2023-08-02T19:48:53.584Z,93638.09
2023-08-02T19:51:20.375Z,93642.06
2023-08-02T19:53:47.169Z,93651.16
2023-08-02T19:56:22.583Z,93650.50
2023-08-02T19:58:49.963Z,93650.59
2023-08-02T20:01:16.760Z,93654.13
2023-08-02T20:03:43.784Z,93660.28
2023-08-02T20:06:11.682Z,93660.53
2023-08-02T20:08:38.486Z,93662.34
2023-08-02T20:11:11.094Z,93664.72
2023-08-02T20:13:38.861Z,93663.28
2023-08-02T20:16:18.461Z,93672.38
2023-08-02T20:18:46.801Z,93671.03
2023-08-02T20:21:21.818Z,93670.59
2023-08-02T20:24:03.796Z,93671.16
2023-08-02T20:26:30.860Z,93680.91
2023-08-02T20:28:57.916Z,93679.78
2023-08-02T20:31:32.185Z,93680.97
2023-08-02T20:33:59.754Z,93681.75
2023-08-02T20:36:26.517Z,93684.31
2023-08-02T20:38:56.373Z,93685.63
2023-08-02T20:41:28.306Z,93684.31
2023-08-02T20:43:57.377Z,93682.91
2023-08-02T20:46:26.515Z,93695.16
2023-08-02T20:48:58.303Z,93695.25
2023-08-02T20:51:28.340Z,93694.88
2023-08-02T20:53:57.547Z,93701.78
2023-08-02T20:56:25.355Z,93702.84
2023-08-02T20:58:52.165Z,93700.56
2023-08-02T21:01:19.104Z,93701.91
2023-08-02T21:03:46.805Z,93708.59
2023-08-02T21:06:14.283Z,93702.66
2023-08-02T21:08:46.948Z,93704.91
2023-08-02T21:11:14.467Z,93707.00
2023-08-02T21:13:41.308Z,93711.59
2023-08-02T21:16:11.328Z,93711.94
2023-08-02T21:18:41.773Z,93710.25
2023-08-02T21:21:09.963Z,93715.34
2023-08-02T21:23:40.275Z,93707.47
2023-08-02T21:26:07.166Z,93709.63
2023-08-02T21:28:34.091Z,93708.06
2023-08-02T21:31:01.518Z,93709.84
2023-08-02T21:33:32.574Z,93726.56
2023-08-02T21:36:01.060Z,93712.75
2023-08-02T21:38:32.127Z,93718.22
2023-08-02T21:41:03.945Z,93722.03
2023-08-02T21:43:33.659Z,93721.53
2023-08-02T21:46:05.813Z,93726.59
2023-08-02T21:48:44.746Z,93719.72
2023-08-02T21:51:12.005Z,93720.56
2023-08-02T21:53:38.880Z,93726.88
2023-08-02T21:56:05.751Z,93726.22
2023-08-02T21:58:36.121Z,93735.81
2023-08-02T22:01:05.704Z,93725.19
2023-08-02T22:03:32.610Z,93736.97
2023-08-02T22:06:03.979Z,93734.56
2023-08-02T22:08:32.045Z,93733.06
2023-08-02T22:10:58.754Z,93726.88
2023-08-02T22:13:25.844Z,93728.56
2023-08-02T22:15:52.542Z,93732.97
2023-08-02T22:18:19.221Z,93729.63
2023-08-02T22:20:45.901Z,93727.25
2023-08-02T22:23:12.780Z,93724.81
2023-08-02T22:25:39.602Z,93731.22
2023-08-02T22:28:06.783Z,93720.03
2023-08-02T22:30:33.938Z,93723.81
2023-08-02T22:33:00.806Z,93727.31
2023-08-02T22:35:27.675Z,93723.50
2023-08-02T22:37:54.341Z,93714.06
2023-08-02T22:40:20.999Z,93712.34
2023-08-02T22:42:47.692Z,93723.28
2023-08-02T22:45:14.348Z,93712.75
2023-08-02T22:47:41.108Z,93718.50
2023-08-02T22:52:37.893Z,93710.59
2023-08-02T22:55:04.935Z,93711.97
2023-08-02T22:57:32.789Z,93717.06
2023-08-02T22:59:59.985Z,93717.75
2023-08-02T23:02:35.586Z,93726.16
2023-08-02T23:05:11.501Z,93718.66
2023-08-02T23:07:38.685Z,93724.47
2023-08-02T23:10:32.478Z,93724.00
2023-08-02T23:13:05.306Z,93723.38
2023-08-02T23:15:32.213Z,93719.53
2023-08-02T23:18:25.108Z,93725.63
2023-08-02T23:20:52.440Z,93718.00
2023-08-02T23:23:22.408Z,93715.59
2023-08-02T23:25:51.836Z,93724.41
2023-08-02T23:28:18.607Z,93722.25
2023-08-02T23:30:45.318Z,93709.84
2023-08-02T23:33:12.861Z,93713.66
2023-08-02T23:35:40.580Z,93713.41
2023-08-02T23:38:07.952Z,93716.59
2023-08-02T23:40:34.766Z,93714.47
2023-08-02T23:43:01.975Z,93721.03
2023-08-02T23:45:28.891Z,93720.88
2023-08-02T23:47:55.746Z,93722.09
2023-08-02T23:50:22.566Z,93716.28
2023-08-02T23:52:49.445Z,93720.81
2023-08-02T23:55:16.245Z,93722.22
2023-08-02T23:57:43.143Z,93717.34
